Time;durP1;ratioP1;P1;durP2;ratioP2;P2;SDS_P1;SDS_P2;PMS_P1;PMS_P2;Temp;Humidity;BMP_temperature;BMP_pressure;BME280_temperature;BME280_humidity;BME280_pressure;Samples;Min_cycle;Max_cycle;Signal;HPM_P1;HPM_P2
2022/10/29 00:00:39;;;;;;;35.15;20.63;;;22.70;62.50;;;;;;5042741;28;20029;-63
2022/10/29 00:03:06;;;;;;;40.67;19.40;;;22.70;62.50;;;;;;5045065;28;20033;-65
2022/10/29 00:05:33;;;;;;;32.97;18.75;;;22.60;62.40;;;;;;5048510;28;20044;-63
2022/10/29 00:07:59;;;;;;;29.70;17.92;;;22.60;62.50;;;;;;5049814;28;20367;-64
2022/10/29 00:10:25;;;;;;;28.73;17.55;;;22.60;62.50;;;;;;5047849;28;20049;-64
2022/10/29 00:12:51;;;;;;;34.35;19.80;;;22.70;62.60;;;;;;5034750;28;20534;-64
2022/10/29 00:15:17;;;;;;;28.67;18.33;;;22.60;62.50;;;;;;5027286;28;20128;-65
2022/10/29 00:17:43;;;;;;;30.27;17.17;;;22.50;62.60;;;;;;5039977;28;20049;-63
2022/10/29 00:20:10;;;;;;;36.05;18.65;;;22.60;62.60;;;;;;5030122;28;20368;-65
2022/10/29 00:22:36;;;;;;;33.97;18.25;;;22.50;62.70;;;;;;5048157;28;20454;-64
2022/10/29 00:25:02;;;;;;;34.53;18.48;;;22.50;62.70;;;;;;5045596;28;20034;-63
2022/10/29 00:27:28;;;;;;;32.85;18.83;;;22.50;62.80;;;;;;5051954;28;20032;-64
2022/10/29 00:29:54;;;;;;;35.13;19.00;;;22.40;62.80;;;;;;5052762;28;20037;-64
2022/10/29 00:32:20;;;;;;;31.23;18.85;;;22.50;62.90;;;;;;5034946;28;20138;-64
2022/10/29 00:34:46;;;;;;;35.33;20.13;;;22.50;62.90;;;;;;5021742;28;20064;-65
2022/10/29 00:37:13;;;;;;;30.38;18.20;;;22.50;62.80;;;;;;5043574;28;20064;-63
2022/10/29 00:39:38;;;;;;;29.05;18.52;;;22.40;62.70;;;;;;5054151;28;20064;-64
2022/10/29 00:42:04;;;;;;;30.98;17.83;;;22.40;62.60;;;;;;5051490;28;20037;-64
2022/10/29 00:44:34;;;;;;;28.05;17.10;;;22.50;62.70;;;;;;5051670;28;20017;-65
2022/10/29 00:47:09;;;;;;;25.13;16.52;;;22.50;62.70;;;;;;5041171;28;20026;-64
2022/10/29 00:49:37;;;;;;;23.95;14.98;;;22.50;62.70;;;;;;5052968;28;20665;-64
2022/10/29 00:52:05;;;;;;;30.83;16.35;;;22.50;62.70;;;;;;5050551;28;20569;-64
2022/10/29 00:54:35;;;;;;;31.55;17.45;;;22.50;62.60;;;;;;5047542;28;20025;-65
2022/10/29 00:57:12;;;;;;;29.90;18.80;;;22.50;62.40;;;;;;5030267;28;20030;-64
2022/10/29 00:59:40;;;;;;;31.80;17.17;;;22.40;62.50;;;;;;5051714;28;20028;-64
2022/10/29 01:02:06;;;;;;;26.13;16.45;;;22.50;62.60;;;;;;5033196;28;20029;-65
2022/10/29 01:04:33;;;;;;;27.65;16.73;;;22.60;62.60;;;;;;5013184;28;20050;-64
2022/10/29 01:06:59;;;;;;;27.15;16.33;;;22.50;62.70;;;;;;5027746;28;20482;-65
2022/10/29 01:09:25;;;;;;;23.23;15.50;;;22.40;62.50;;;;;;5045280;28;20061;-64
2022/10/29 01:12:19;;;;;;;23.83;15.02;;;22.40;62.60;;;;;;5032125;28;20630;-65
2022/10/29 01:14:48;;;;;;;25.42;14.98;;;22.40;62.70;;;;;;5030847;28;20030;-65
2022/10/29 01:17:35;;;;;;;25.80;13.63;;;22.30;62.90;;;;;;5043455;28;20061;-64
2022/10/29 01:20:40;;;;;;;20.38;13.93;;;22.30;62.90;;;;;;5053390;28;20488;-64
2022/10/29 01:23:32;;;;;;;21.77;14.73;;;22.30;63.00;;;;;;5046789;28;20044;-64
2022/10/29 01:26:01;;;;;;;28.08;14.52;;;22.20;62.90;;;;;;5010650;28;20033;-65
2022/10/29 01:28:54;;;;;;;24.58;15.60;;;22.30;63.10;;;;;;5042442;28;20143;-64
2022/10/29 01:31:43;;;;;;;31.63;16.20;;;22.20;63.10;;;;;;5022427;28;20600;-64
2022/10/29 01:34:30;;;;;;;29.98;15.88;;;22.20;63.10;;;;;;5044665;28;20044;-65
2022/10/29 01:37:19;;;;;;;26.92;15.30;;;22.10;63.00;;;;;;5004107;28;20096;-65
2022/10/29 01:40:11;;;;;;;28.30;16.02;;;22.30;63.10;;;;;;4998072;28;20027;-65
2022/10/29 01:42:43;;;;;;;26.08;15.23;;;22.20;62.80;;;;;;4990676;28;20077;-64
2022/10/29 01:45:16;;;;;;;29.92;14.07;;;22.30;62.90;;;;;;4990908;28;20085;-64
2022/10/29 01:47:56;;;;;;;22.83;14.85;;;22.20;62.70;;;;;;4992960;28;20053;-65
2022/10/29 01:50:24;;;;;;;25.50;14.00;;;22.20;62.70;;;;;;4990445;28;20078;-64
2022/10/29 01:52:52;;;;;;;20.92;12.85;;;22.30;62.80;;;;;;4991873;28;20030;-65
2022/10/29 01:55:20;;;;;;;19.08;12.85;;;22.30;62.80;;;;;;4971348;28;20057;-65
2022/10/29 01:57:46;;;;;;;17.70;13.23;;;22.20;62.50;;;;;;4971635;28;20041;-64
2022/10/29 02:00:16;;;;;;;20.45;13.00;;;22.30;62.60;;;;;;4970453;28;20039;-65
2022/10/29 02:03:01;;;;;;;23.42;14.18;;;22.20;62.50;;;;;;4985553;28;20031;-64
2022/10/29 02:05:35;;;;;;;20.83;14.48;;;22.20;62.50;;;;;;4993441;28;20057;-65
2022/10/29 02:08:19;;;;;;;25.00;14.07;;;22.20;62.40;;;;;;4994062;28;20496;-64
2022/10/29 02:11:19;;;;;;;21.27;14.25;;;22.10;62.50;;;;;;4997163;28;20042;-65
2022/10/29 02:14:08;;;;;;;24.75;13.15;;;22.10;62.70;;;;;;5022093;28;20094;-65
2022/10/29 02:16:34;;;;;;;24.35;14.45;;;22.10;62.70;;;;;;5043714;28;20037;-64
2022/10/29 02:19:00;;;;;;;23.80;13.18;;;22.10;62.80;;;;;;5043362;28;20067;-65
2022/10/29 02:21:26;;;;;;;24.55;13.13;;;22.00;62.70;;;;;;5044436;28;20124;-64
2022/10/29 02:23:52;;;;;;;21.38;12.70;;;22.00;62.80;;;;;;5051390;28;20036;-65
2022/10/29 02:26:20;;;;;;;18.65;12.50;;;22.10;63.00;;;;;;5042520;28;20446;-64
2022/10/29 02:28:46;;;;;;;23.35;13.57;;;22.10;62.90;;;;;;5044155;28;20048;-65
2022/10/29 02:31:12;;;;;;;22.85;13.10;;;22.00;62.80;;;;;;5020935;28;20120;-65
2022/10/29 02:33:38;;;;;;;23.00;12.90;;;22.00;62.80;;;;;;5054816;28;20030;-64
2022/10/29 02:36:04;;;;;;;16.73;12.45;;;22.10;62.80;;;;;;5030952;28;20044;-65
2022/10/29 02:38:30;;;;;;;21.50;13.02;;;22.00;62.80;;;;;;5045697;28;20448;-63
2022/10/29 02:40:56;;;;;;;27.92;14.68;;;22.10;62.90;;;;;;5045095;28;20036;-64
2022/10/29 02:43:22;;;;;;;24.67;14.25;;;22.10;62.80;;;;;;5049191;28;20037;-64
2022/10/29 02:45:49;;;;;;;22.45;13.82;;;22.00;62.80;;;;;;5041856;28;20029;-64
2022/10/29 02:48:15;;;;;;;25.02;13.23;;;21.90;62.70;;;;;;5034486;28;20037;-65
2022/10/29 02:50:41;;;;;;;24.95;15.95;;;21.90;62.70;;;;;;5049117;28;20045;-65
2022/10/29 02:53:07;;;;;;;22.70;14.85;;;21.90;62.90;;;;;;5043844;28;20461;-65
2022/10/29 02:55:33;;;;;;;25.92;14.07;;;22.00;62.80;;;;;;5047369;28;20052;-64
2022/10/29 02:57:59;;;;;;;24.95;14.65;;;22.00;62.70;;;;;;5045417;28;20044;-64
2022/10/29 03:00:25;;;;;;;23.20;14.55;;;22.00;62.60;;;;;;5039202;28;20045;-64
2022/10/29 03:02:51;;;;;;;23.83;14.52;;;22.00;62.50;;;;;;5026436;28;20391;-64
2022/10/29 03:05:17;;;;;;;22.80;13.15;;;22.00;62.50;;;;;;5003214;28;20057;-63
2022/10/29 03:07:43;;;;;;;26.60;13.85;;;22.00;62.40;;;;;;5021543;28;20034;-65
2022/10/29 03:10:09;;;;;;;27.55;14.48;;;22.00;62.40;;;;;;5042402;28;20049;-64
2022/10/29 03:12:35;;;;;;;23.88;14.68;;;22.10;62.40;;;;;;5046462;28;20079;-64
2022/10/29 03:15:01;;;;;;;27.35;15.57;;;22.00;62.20;;;;;;5021441;28;20045;-65
2022/10/29 03:17:27;;;;;;;27.48;15.00;;;22.00;62.20;;;;;;5008860;28;20046;-65
2022/10/29 03:19:53;;;;;;;25.60;15.75;;;22.00;62.10;;;;;;5044764;28;20187;-64
2022/10/29 03:22:19;;;;;;;26.48;16.80;;;22.10;62.20;;;;;;5047107;28;20043;-64
2022/10/29 03:24:45;;;;;;;28.85;17.42;;;22.10;62.10;;;;;;5048765;28;20051;-64
2022/10/29 03:27:11;;;;;;;28.63;16.33;;;22.20;62.10;;;;;;5078773;28;20084;-65
2022/10/29 03:29:37;;;;;;;26.60;16.00;;;22.20;62.10;;;;;;5048505;28;20166;-65
2022/10/29 03:32:03;;;;;;;24.67;14.50;;;22.20;62.00;;;;;;5044492;28;20128;-65
2022/10/29 03:34:29;;;;;;;25.13;15.35;;;22.20;61.90;;;;;;5042270;28;20032;-65
2022/10/29 03:36:55;;;;;;;23.40;14.43;;;22.30;62.10;;;;;;5046854;28;20079;-64
2022/10/29 03:39:21;;;;;;;22.70;14.25;;;22.30;62.00;;;;;;5047498;28;20044;-65
2022/10/29 03:41:47;;;;;;;21.55;14.20;;;22.20;61.80;;;;;;5048391;28;20493;-65
2022/10/29 03:44:13;;;;;;;34.45;15.07;;;22.20;61.70;;;;;;5041497;28;20029;-65
2022/10/29 03:46:39;;;;;;;26.85;15.55;;;22.30;61.90;;;;;;5027777;28;20033;-64
2022/10/29 03:49:05;;;;;;;27.00;15.45;;;22.20;61.70;;;;;;5036719;28;20485;-63
2022/10/29 03:51:31;;;;;;;27.83;15.13;;;22.30;61.80;;;;;;5049536;28;20064;-64
2022/10/29 03:53:57;;;;;;;22.25;14.43;;;22.30;61.80;;;;;;5044422;28;20064;-63
2022/10/29 03:56:23;;;;;;;23.50;13.27;;;22.40;61.70;;;;;;5048918;28;20044;-65
2022/10/29 03:58:49;;;;;;;22.48;13.25;;;22.40;61.70;;;;;;5044937;28;20032;-64
2022/10/29 04:01:15;;;;;;;23.42;14.07;;;22.40;61.70;;;;;;5045284;28;20127;-65
2022/10/29 04:03:42;;;;;;;25.90;15.52;;;22.20;61.60;;;;;;5037627;28;20037;-64
2022/10/29 04:06:11;;;;;;;27.17;14.50;;;22.30;61.60;;;;;;5049038;28;20108;-65
2022/10/29 04:08:38;;;;;;;28.20;16.38;;;22.30;61.50;;;;;;5042030;28;20083;-65
2022/10/29 04:11:04;;;;;;;32.30;16.15;;;22.30;61.60;;;;;;5050775;28;20135;-64
2022/10/29 04:13:31;;;;;;;32.78;19.05;;;22.20;61.50;;;;;;5036844;28;20437;-64
2022/10/29 04:15:56;;;;;;;36.83;19.45;;;22.30;61.70;;;;;;5035788;28;20419;-65
2022/10/29 04:18:23;;;;;;;24.88;15.65;;;22.30;61.60;;;;;;5036512;28;20108;-65
2022/10/29 04:20:49;;;;;;;22.83;15.70;;;22.20;61.50;;;;;;5034483;28;20022;-64
2022/10/29 04:23:15;;;;;;;23.48;14.02;;;22.10;61.50;;;;;;5033758;28;20188;-64
2022/10/29 04:25:41;;;;;;;25.10;14.63;;;22.20;61.50;;;;;;5034609;28;20033;-64
2022/10/29 04:28:07;;;;;;;20.50;13.18;;;22.20;61.50;;;;;;5034089;28;20063;-64
2022/10/29 04:30:33;;;;;;;26.73;15.15;;;22.10;61.70;;;;;;5046870;28;20463;-65
2022/10/29 04:32:59;;;;;;;33.85;17.67;;;22.20;61.70;;;;;;5034556;28;20022;-65
2022/10/29 04:35:27;;;;;;;22.42;14.63;;;22.10;61.50;;;;;;5034606;28;20044;-64
2022/10/29 04:37:54;;;;;;;31.20;14.93;;;22.20;61.40;;;;;;5034501;28;20049;-64
2022/10/29 04:40:22;;;;;;;25.65;14.75;;;22.20;61.40;;;;;;5034285;28;20374;-64
2022/10/29 04:42:48;;;;;;;24.50;14.75;;;22.30;61.50;;;;;;5031791;28;20041;-65
2022/10/29 04:45:14;;;;;;;21.67;13.43;;;22.10;61.30;;;;;;5034862;28;20033;-64
2022/10/29 04:47:40;;;;;;;23.45;13.23;;;22.10;61.30;;;;;;5036072;28;20490;-63
2022/10/29 04:50:06;;;;;;;18.92;12.77;;;22.10;61.20;;;;;;5045462;28;20040;-65
2022/10/29 04:52:32;;;;;;;20.95;13.60;;;22.20;61.10;;;;;;5031594;28;20046;-65
2022/10/29 04:54:58;;;;;;;25.85;13.15;;;22.20;61.10;;;;;;5041251;28;20040;-64
2022/10/29 04:57:24;;;;;;;19.35;12.48;;;22.20;61.10;;;;;;5052543;28;20364;-65
2022/10/29 04:59:50;;;;;;;30.25;14.05;;;22.10;61.00;;;;;;5043081;28;20095;-65
2022/10/29 05:02:16;;;;;;;23.50;12.80;;;22.10;61.00;;;;;;5036466;28;20034;-64
2022/10/29 05:04:42;;;;;;;19.45;13.00;;;22.20;61.10;;;;;;5033595;28;20045;-65
2022/10/29 05:07:08;;;;;;;24.48;13.57;;;22.10;61.10;;;;;;5027696;28;20030;-65
2022/10/29 05:09:34;;;;;;;19.13;13.45;;;22.00;61.00;;;;;;5030799;28;20064;-64
2022/10/29 05:12:00;;;;;;;22.60;13.25;;;22.10;61.20;;;;;;5031304;28;20044;-65
2022/10/29 05:14:26;;;;;;;24.27;14.02;;;22.10;61.20;;;;;;5030504;28;20059;-65
2022/10/29 05:16:52;;;;;;;21.95;13.80;;;22.00;61.20;;;;;;5029806;28;20030;-63
2022/10/29 05:19:18;;;;;;;26.42;13.75;;;21.90;61.20;;;;;;5032259;28;20029;-64
2022/10/29 05:21:44;;;;;;;21.15;14.18;;;22.00;61.20;;;;;;5032227;28;20080;-65
2022/10/29 05:24:10;;;;;;;32.10;16.20;;;22.10;61.30;;;;;;5031452;28;20048;-65
2022/10/29 05:26:36;;;;;;;32.03;15.82;;;22.00;61.10;;;;;;5033643;28;20044;-64
2022/10/29 05:29:02;;;;;;;26.00;15.70;;;21.90;61.00;;;;;;5032814;28;20041;-66
2022/10/29 05:31:28;;;;;;;30.65;15.73;;;22.00;61.00;;;;;;5028347;28;20037;-65
2022/10/29 05:33:54;;;;;;;24.02;14.27;;;22.00;60.80;;;;;;5038849;28;20033;-65
2022/10/29 05:36:19;;;;;;;18.48;12.93;;;22.10;60.60;;;;;;5039756;28;20040;-64
2022/10/29 05:38:45;;;;;;;14.40;11.18;;;22.00;53.20;;;;;;5043566;28;20032;-68
2022/10/29 05:41:11;;;;;;;16.60;10.63;;;22.00;53.30;;;;;;5044122;28;20041;-65
2022/10/29 05:43:37;;;;;;;17.65;11.45;;;22.20;53.00;;;;;;5037974;28;20483;-65
2022/10/29 05:46:04;;;;;;;17.30;9.90;;;22.20;52.70;;;;;;5048974;28;20069;-65
2022/10/29 05:48:30;;;;;;;18.63;11.82;;;22.30;52.50;;;;;;5047904;28;20132;-63
2022/10/29 05:50:59;;;;;;;19.38;12.60;;;22.30;52.30;;;;;;5047323;28;20047;-64
2022/10/29 05:53:25;;;;;;;18.02;11.40;;;22.40;52.10;;;;;;5032833;28;20544;-65
2022/10/29 05:55:51;;;;;;;17.58;12.23;;;22.40;52.10;;;;;;5031406;28;20045;-67
2022/10/29 05:58:17;;;;;;;18.90;12.20;;;22.40;51.90;;;;;;5032130;28;20030;-66
2022/10/29 06:00:44;;;;;;;16.15;11.00;;;22.60;52.80;;;;;;5030439;28;20195;-66
2022/10/29 06:03:16;;;;;;;20.73;12.93;;;22.60;54.60;;;;;;5032847;28;20060;-65
2022/10/29 06:05:43;;;;;;;23.77;13.88;;;22.50;55.10;;;;;;5030830;28;20041;-65
2022/10/29 06:08:09;;;;;;;21.40;12.57;;;22.70;54.30;;;;;;5030073;28;20033;-65
2022/10/29 06:10:35;;;;;;;26.67;15.63;;;22.60;52.40;;;;;;5031366;28;20072;-66
2022/10/29 06:13:01;;;;;;;29.85;16.23;;;22.70;63.10;;;;;;5049378;28;20381;-67
2022/10/29 06:15:27;;;;;;;28.02;17.40;;;22.80;65.10;;;;;;5049967;28;20037;-66
2022/10/29 06:17:53;;;;;;;31.52;17.27;;;22.90;65.00;;;;;;5050026;28;20102;-66
2022/10/29 06:20:20;;;;;;;33.67;18.90;;;22.80;65.10;;;;;;5029932;28;20128;-66
2022/10/29 06:22:53;;;;;;;31.27;16.25;;;22.80;66.00;;;;;;5028730;28;20041;-65
2022/10/29 06:25:19;;;;;;;33.65;17.33;;;22.70;65.70;;;;;;5027412;28;20132;-67
2022/10/29 06:27:45;;;;;;;25.30;17.10;;;22.80;65.70;;;;;;5022397;28;21918;-65
2022/10/29 06:30:11;;;;;;;35.95;18.30;;;22.60;68.00;;;;;;5027016;28;20593;-64
2022/10/29 06:32:37;;;;;;;35.63;16.88;;;22.70;70.40;;;;;;5011398;28;20041;-65
2022/10/29 06:35:04;;;;;;;30.60;16.92;;;22.70;67.90;;;;;;5012398;28;20110;-67
2022/10/29 06:37:32;;;;;;;29.90;18.38;;;22.70;67.80;;;;;;5029133;28;20444;-68
2022/10/29 06:39:58;;;;;;;35.08;18.23;;;22.60;67.60;;;;;;5027513;28;20026;-67
2022/10/29 06:42:24;;;;;;;33.75;19.52;;;22.50;67.60;;;;;;5028155;28;20462;-66
2022/10/29 06:44:50;;;;;;;33.40;16.95;;;22.50;67.50;;;;;;5026753;28;20049;-67
2022/10/29 06:47:16;;;;;;;30.65;17.85;;;22.60;67.40;;;;;;5028166;28;20034;-67
2022/10/29 06:49:42;;;;;;;26.88;16.00;;;22.60;67.20;;;;;;5027555;28;20042;-66
2022/10/29 06:52:08;;;;;;;30.48;14.98;;;22.70;67.30;;;;;;5026091;28;20183;-66
2022/10/29 06:54:34;;;;;;;27.42;15.07;;;22.70;67.50;;;;;;4995822;28;20039;-66
2022/10/29 06:57:00;;;;;;;29.15;14.23;;;22.80;67.00;;;;;;5027614;28;20045;-66
2022/10/29 06:59:26;;;;;;;29.10;14.90;;;22.80;66.70;;;;;;5039648;28;20083;-67
2022/10/29 07:01:52;;;;;;;20.60;13.20;;;22.90;66.50;;;;;;5042445;28;20052;-69
2022/10/29 07:04:19;;;;;;;24.98;13.75;;;23.00;66.40;;;;;;5035812;28;21928;-66
2022/10/29 07:06:45;;;;;;;26.77;13.07;;;23.00;66.10;;;;;;5039091;28;20044;-66
2022/10/29 07:09:11;;;;;;;22.13;13.10;;;23.00;66.30;;;;;;5038108;28;20033;-66
2022/10/29 07:11:39;;;;;;;19.15;11.63;;;23.00;66.60;;;;;;5048700;28;20053;-67
2022/10/29 07:14:07;;;;;;;16.85;9.93;;;23.00;67.20;;;;;;5037788;28;20541;-66
2022/10/29 07:16:33;;;;;;;14.65;9.18;;;23.00;67.40;;;;;;5045709;28;20040;-67
2022/10/29 07:18:59;;;;;;;18.15;10.80;;;23.20;67.00;;;;;;5040158;28;20029;-65
2022/10/29 07:21:25;;;;;;;12.18;8.43;;;23.20;66.60;;;;;;5042761;28;20051;-68
2022/10/29 07:23:51;;;;;;;16.17;9.25;;;23.40;66.20;;;;;;5038924;28;20025;-68
2022/10/29 07:26:17;;;;;;;16.42;10.98;;;23.40;65.60;;;;;;5030712;28;20034;-66
2022/10/29 07:28:43;;;;;;;20.05;11.13;;;23.40;65.10;;;;;;5040670;28;20363;-66
2022/10/29 07:31:09;;;;;;;19.05;11.57;;;23.40;64.60;;;;;;5041534;28;20075;-67
2022/10/29 07:33:35;;;;;;;13.85;9.80;;;23.50;63.50;;;;;;5042405;28;20056;-67
2022/10/29 07:36:01;;;;;;;19.55;12.85;;;23.50;64.60;;;;;;5029782;28;20045;-66
2022/10/29 07:38:27;;;;;;;3.00;2.08;;;23.50;64.40;;;;;;5046810;28;20017;-66
2022/10/29 07:40:53;;;;;;;5.93;3.22;;;23.60;64.60;;;;;;5047508;28;20036;-68
2022/10/29 07:43:20;;;;;;;3.47;3.17;;;23.80;64.30;;;;;;5046811;28;20132;-69
2022/10/29 07:45:51;;;;;;;11.65;5.57;;;23.70;63.30;;;;;;5045023;28;20613;-68
2022/10/29 07:48:19;;;;;;;2.15;2.03;;;23.70;62.10;;;;;;5048330;28;20048;-68
2022/10/29 07:50:45;;;;;;;1.48;1.48;;;23.80;61.50;;;;;;5038849;28;20509;-69
2022/10/29 07:53:11;;;;;;;5.80;4.95;;;23.80;61.70;;;;;;5037003;28;20160;-69
2022/10/29 07:55:37;;;;;;;5.50;3.40;;;23.90;62.70;;;;;;5030050;28;20042;-68
2022/10/29 07:58:09;;;;;;;21.40;13.48;;;23.80;61.00;;;;;;5021994;28;20135;-68
2022/10/29 08:00:38;;;;;;;20.75;12.38;;;23.90;59.30;;;;;;5033545;28;20033;-68
2022/10/29 08:03:04;;;;;;;16.13;11.40;;;23.90;58.70;;;;;;5036124;28;20047;-66
2022/10/29 08:05:31;;;;;;;3.53;2.10;;;23.90;59.10;;;;;;5033169;28;20057;-66
2022/10/29 08:07:58;;;;;;;5.38;3.58;;;24.00;60.80;;;;;;5028512;28;20053;-67
2022/10/29 08:10:25;;;;;;;1.15;1.10;;;24.30;60.60;;;;;;5039276;28;20037;-67
2022/10/29 08:12:52;;;;;;;23.40;13.23;;;24.30;58.70;;;;;;5036548;28;20045;-67
2022/10/29 08:15:19;;;;;;;22.98;13.40;;;24.20;57.60;;;;;;5013634;28;20048;-67
2022/10/29 08:17:46;;;;;;;21.13;12.68;;;24.30;57.50;;;;;;5041745;28;20037;-66
2022/10/29 08:20:13;;;;;;;22.27;12.60;;;24.30;58.20;;;;;;5037258;28;20395;-68
2022/10/29 08:22:39;;;;;;;26.35;13.00;;;24.30;58.40;;;;;;5042360;28;20028;-68
2022/10/29 08:25:05;;;;;;;22.17;13.27;;;24.30;58.70;;;;;;5047143;28;20028;-66
2022/10/29 08:27:31;;;;;;;21.40;12.88;;;24.30;59.30;;;;;;5045017;28;20117;-67
2022/10/29 08:29:57;;;;;;;21.58;11.20;;;24.30;59.10;;;;;;5044090;28;20037;-67
2022/10/29 08:32:23;;;;;;;24.73;12.68;;;24.30;58.90;;;;;;4997305;28;20073;-67
2022/10/29 08:34:50;;;;;;;22.45;11.93;;;24.30;59.00;;;;;;5010376;28;20537;-67
2022/10/29 08:37:16;;;;;;;24.67;13.07;;;24.20;58.80;;;;;;5000621;28;20042;-69
2022/10/29 08:39:41;;;;;;;20.75;12.30;;;24.20;58.80;;;;;;5012847;28;20420;-70
2022/10/29 08:42:39;;;;;;;18.60;12.18;;;24.20;58.80;;;;;;4991299;28;20128;-70
2022/10/29 08:45:44;;;;;;;17.98;11.75;;;24.20;58.90;;;;;;4991557;28;20038;-68
2022/10/29 08:48:45;;;;;;;18.05;10.02;;;24.10;58.80;;;;;;4951827;28;20031;-69
2022/10/29 08:51:21;;;;;;;19.77;11.05;;;24.10;58.90;;;;;;4964929;28;20105;-67
2022/10/29 08:53:53;;;;;;;18.52;10.73;;;24.10;59.10;;;;;;4971338;28;20536;-69
2022/10/29 08:56:26;;;;;;;18.38;11.40;;;24.20;59.00;;;;;;4955580;28;20105;-71
2022/10/29 08:59:12;;;;;;;18.80;11.00;;;24.10;59.00;;;;;;4956052;28;20047;-70
2022/10/29 09:01:38;;;;;;;18.88;10.80;;;24.10;59.00;;;;;;4971810;28;20031;-68
2022/10/29 09:04:22;;;;;;;21.38;10.30;;;24.10;58.80;;;;;;5000792;28;20041;-69
2022/10/29 09:06:54;;;;;;;19.77;10.10;;;24.20;59.30;;;;;;5009806;28;20050;-68
2022/10/29 09:09:25;;;;;;;15.77;10.50;;;24.20;58.70;;;;;;5003455;28;20046;-70
2022/10/29 09:12:06;;;;;;;15.73;9.80;;;24.10;59.20;;;;;;4991357;28;20499;-70
2022/10/29 09:14:49;;;;;;;17.95;11.63;;;24.20;59.30;;;;;;4992136;28;20058;-71
2022/10/29 09:17:18;;;;;;;19.73;10.30;;;24.20;58.90;;;;;;4991468;28;20056;-70
2022/10/29 09:19:59;;;;;;;18.48;10.55;;;24.20;59.10;;;;;;4991990;28;20034;-70
2022/10/29 09:22:49;;;;;;;13.75;8.85;;;24.20;55.30;;;;;;4991919;28;20093;-70
2022/10/29 09:25:18;;;;;;;18.27;10.00;;;24.10;58.90;;;;;;5009882;28;20532;-70
2022/10/29 09:28:10;;;;;;;14.30;8.68;;;24.10;59.20;;;;;;5013522;28;20045;-69
2022/10/29 09:31:00;;;;;;;16.50;7.78;;;24.20;59.30;;;;;;5012996;28;20109;-69
2022/10/29 09:33:27;;;;;;;12.38;8.57;;;24.20;59.30;;;;;;5013119;28;20034;-69
2022/10/29 09:35:56;;;;;;;17.00;8.95;;;24.20;59.20;;;;;;5019003;28;20112;-70
2022/10/29 09:38:41;;;;;;;16.90;9.25;;;24.20;59.20;;;;;;5029877;28;20375;-69
2022/10/29 09:41:10;;;;;;;11.00;7.45;;;24.20;59.00;;;;;;5032228;28;20750;-70
2022/10/29 09:43:45;;;;;;;13.55;8.43;;;24.10;58.90;;;;;;5032347;28;20037;-70
2022/10/29 09:46:32;;;;;;;14.57;7.95;;;24.10;58.80;;;;;;5032524;28;20712;-69
2022/10/29 09:49:25;;;;;;;13.30;8.18;;;24.10;58.20;;;;;;5030365;28;20454;-68
2022/10/29 09:52:02;;;;;;;15.93;9.80;;;24.00;58.70;;;;;;5033434;28;20043;-70
2022/10/29 09:54:30;;;;;;;11.48;7.65;;;24.10;57.40;;;;;;5034908;28;20116;-67
2022/10/29 09:56:59;;;;;;;13.90;8.25;;;24.00;57.00;;;;;;5041158;28;20053;-67
2022/10/29 09:59:46;;;;;;;14.25;8.43;;;24.10;58.20;;;;;;5036187;28;20025;-67
2022/10/29 10:02:31;;;;;;;16.30;9.13;;;24.00;57.50;;;;;;5036911;28;20033;-66
2022/10/29 10:05:13;;;;;;;14.07;7.97;;;24.10;58.20;;;;;;5044387;28;20398;-67
2022/10/29 10:07:40;;;;;;;19.25;9.52;;;24.00;58.70;;;;;;5037353;28;20037;-66
2022/10/29 10:10:27;;;;;;;16.52;8.48;;;23.90;58.20;;;;;;5047333;28;20049;-66
2022/10/29 10:13:05;;;;;;;15.88;9.75;;;24.10;58.70;;;;;;5043214;28;20045;-66
2022/10/29 10:15:36;;;;;;;20.48;9.85;;;24.00;58.30;;;;;;5046351;28;20043;-67
2022/10/29 10:18:37;;;;;;;13.93;8.88;;;24.00;57.50;;;;;;5031985;28;20542;-68
2022/10/29 10:21:12;;;;;;;16.58;9.25;;;24.00;58.30;;;;;;5016319;28;20051;-68
2022/10/29 10:23:41;;;;;;;19.10;9.38;;;24.00;57.00;;;;;;5009084;28;20620;-67
2022/10/29 10:26:28;;;;;;;13.63;9.52;;;23.90;58.30;;;;;;5006826;28;20041;-67
2022/10/29 10:29:26;;;;;;;14.93;8.60;;;23.90;57.40;;;;;;5007389;28;20060;-67
2022/10/29 10:31:54;;;;;;;13.93;9.55;;;24.00;57.70;;;;;;5008653;28;20103;-67
2022/10/29 10:34:25;;;;;;;14.40;8.45;;;24.00;57.60;;;;;;5009141;28;20074;-68
2022/10/29 10:37:02;;;;;;;14.55;9.13;;;23.90;57.20;;;;;;5007082;28;20045;-68
2022/10/29 10:39:33;;;;;;;21.35;8.38;;;24.10;57.50;;;;;;5008775;28;20128;-73
2022/10/29 10:42:23;;;;;;;15.45;8.52;;;24.00;57.40;;;;;;5006301;28;20037;-65
2022/10/29 10:44:56;;;;;;;13.73;7.75;;;24.00;57.60;;;;;;4949074;28;20050;-65
2022/10/29 10:47:32;;;;;;;13.60;7.07;;;24.00;57.90;;;;;;4970181;28;20384;-66
2022/10/29 10:50:23;;;;;;;14.25;8.25;;;24.10;58.50;;;;;;4969637;28;20125;-67
2022/10/29 10:52:50;;;;;;;9.73;6.70;;;24.20;57.80;;;;;;4968998;28;20404;-64
2022/10/29 10:55:30;;;;;;;2.58;1.77;;;24.10;58.80;;;;;;4978690;28;20039;-66
2022/10/29 10:58:16;;;;;;;3.58;2.97;;;24.10;59.00;;;;;;4974540;28;20605;-67
2022/10/29 11:01:08;;;;;;;5.18;2.53;;;24.50;60.70;;;;;;4970872;28;20049;-66
2022/10/29 11:03:42;;;;;;;3.72;3.03;;;24.70;59.50;;;;;;4982415;28;20054;-65
2022/10/29 11:06:24;;;;;;;8.55;3.85;;;24.90;59.40;;;;;;4989844;28;20054;-62
2022/10/29 11:09:05;;;;;;;10.37;4.90;;;25.00;66.60;;;;;;4971200;28;20038;-65
2022/10/29 11:11:49;;;;;;;4.40;3.97;;;25.10;68.50;;;;;;4989662;28;20291;-65
2022/10/29 11:14:30;;;;;;;5.60;3.75;;;25.40;69.80;;;;;;4990089;28;20038;-65
2022/10/29 11:17:00;;;;;;;12.50;6.55;;;25.60;70.20;;;;;;4989889;28;20031;-66
2022/10/29 11:19:44;;;;;;;14.27;5.97;;;25.60;65.10;;;;;;4989087;28;20041;-65
2022/10/29 11:22:28;;;;;;;8.27;4.53;;;25.50;64.20;;;;;;5016036;28;20049;-65
2022/10/29 11:25:18;;;;;;;12.65;5.32;;;25.50;60.70;;;;;;5029614;28;20475;-64
2022/10/29 11:27:54;;;;;;;9.77;5.57;;;25.50;61.20;;;;;;5037304;28;20393;-64
2022/10/29 11:30:21;;;;;;;11.07;4.88;;;25.60;62.00;;;;;;5046148;28;20448;-64
2022/10/29 11:33:05;;;;;;;8.25;5.22;;;25.60;64.00;;;;;;5044672;28;20063;-65
2022/10/29 11:35:45;;;;;;;7.75;5.40;;;25.60;64.90;;;;;;5036635;28;20029;-65
2022/10/29 11:38:37;;;;;;;8.18;5.60;;;25.60;66.00;;;;;;5035118;28;20037;-65
2022/10/29 11:41:15;;;;;;;6.43;4.95;;;25.60;66.10;;;;;;5030575;28;20056;-64
2022/10/29 11:43:40;;;;;;;6.05;4.82;;;25.50;67.50;;;;;;5030470;28;20814;-64
2022/10/29 11:46:25;;;;;;;9.82;5.95;;;25.60;61.80;;;;;;5032103;28;20021;-64
2022/10/29 11:49:19;;;;;;;7.90;5.47;;;25.70;60.00;;;;;;5029315;28;20041;-66
2022/10/29 11:51:57;;;;;;;8.57;5.65;;;25.60;57.10;;;;;;5029092;28;20029;-66
2022/10/29 11:54:48;;;;;;;8.43;4.40;;;25.60;58.80;;;;;;5044091;28;20041;-66
2022/10/29 11:57:30;;;;;;;10.15;5.70;;;25.50;59.00;;;;;;5032677;28;20385;-66
2022/10/29 12:00:17;;;;;;;11.00;5.47;;;25.50;58.60;;;;;;5044431;28;20049;-66
2022/10/29 12:03:06;;;;;;;7.00;4.28;;;25.50;58.50;;;;;;5040527;28;20037;-66
2022/10/29 12:05:47;;;;;;;9.48;4.97;;;25.50;58.40;;;;;;5050145;28;20462;-66
2022/10/29 12:08:25;;;;;;;9.10;4.57;;;25.60;58.10;;;;;;5037313;28;20429;-66
2022/10/29 12:11:19;;;;;;;7.72;4.50;;;25.60;58.10;;;;;;5036382;28;20391;-66
2022/10/29 12:13:57;;;;;;;8.40;4.72;;;25.50;58.10;;;;;;5016325;28;20050;-65
2022/10/29 12:16:39;;;;;;;10.60;4.22;;;25.50;58.10;;;;;;5012968;28;20049;-66
2022/10/29 12:19:24;;;;;;;4.90;3.57;;;25.60;57.90;;;;;;5017444;28;20045;-66
2022/10/29 12:22:34;;;;;;;6.78;4.35;;;25.40;57.90;;;;;;5019032;28;20029;-66
2022/10/29 12:25:27;;;;;;;8.15;5.50;;;25.30;57.80;;;;;;4960268;28;20066;-65
2022/10/29 12:28:20;;;;;;;6.50;4.50;;;25.30;57.80;;;;;;4964858;28;20476;-66
2022/10/29 12:31:12;;;;;;;5.40;3.90;;;25.50;57.90;;;;;;4953110;28;20492;-65
2022/10/29 12:33:46;;;;;;;5.70;3.88;;;25.30;57.80;;;;;;4963256;28;20074;-64
2022/10/29 12:36:34;;;;;;;9.13;4.47;;;25.30;57.70;;;;;;4955809;28;20101;-65
2022/10/29 12:39:01;;;;;;;8.23;5.05;;;25.30;57.70;;;;;;4953077;28;20061;-65
2022/10/29 12:41:43;;;;;;;8.65;4.72;;;25.10;57.80;;;;;;4959121;28;20055;-65
2022/10/29 12:44:24;;;;;;;9.52;4.55;;;25.20;57.80;;;;;;4960784;28;20057;-65
2022/10/29 12:46:58;;;;;;;9.68;5.03;;;25.30;57.80;;;;;;4966314;28;20049;-66
2022/10/29 12:49:45;;;;;;;5.25;3.95;;;25.30;57.90;;;;;;4971782;28;20043;-66
2022/10/29 12:52:34;;;;;;;9.23;4.93;;;25.20;58.10;;;;;;5002613;28;20054;-69
2022/10/29 12:55:03;;;;;;;7.40;4.07;;;25.10;58.00;;;;;;4999837;28;20115;-69